sensor_id;sensor_type;location;lat;lon;timestamp;temperature;humidity
15241;DHT22;7723;52.170;9.978;2023-04-03T00:00:34;-0.40;99.90
15241;DHT22;7723;52.170;9.978;2023-04-03T00:03:01;-0.30;99.90
15241;DHT22;7723;52.170;9.978;2023-04-03T00:05:28;-0.30;99.90
15241;DHT22;7723;52.170;9.978;2023-04-03T00:07:55;-0.30;99.90
15241;DHT22;7723;52.170;9.978;2023-04-03T00:10:23;-0.40;99.90
15241;DHT22;7723;52.170;9.978;2023-04-03T00:12:51;-0.40;99.90
15241;DHT22;7723;52.170;9.978;2023-04-03T00:15:18;-0.40;99.90
15241;DHT22;7723;52.170;9.978;2023-04-03T00:17:45;-0.40;99.90
15241;DHT22;7723;52.170;9.978;2023-04-03T00:20:12;-0.40;99.90
15241;DHT22;7723;52.170;9.978;2023-04-03T00:22:40;0.60;99.90
15241;DHT22;7723;52.170;9.978;2023-04-03T00:25:08;-0.50;99.90
15241;DHT22;7723;52.170;9.978;2023-04-03T00:27:36;-0.40;99.90
15241;DHT22;7723;52.170;9.978;2023-04-03T00:30:07;-0.30;99.90
15241;DHT22;7723;52.170;9.978;2023-04-03T00:32:34;-0.40;99.90
15241;DHT22;7723;52.170;9.978;2023-04-03T00:35:02;-0.40;99.90
15241;DHT22;7723;52.170;9.978;2023-04-03T00:37:29;-0.40;99.90
15241;DHT22;7723;52.170;9.978;2023-04-03T00:39:56;-0.40;99.90
15241;DHT22;7723;52.170;9.978;2023-04-03T00:42:23;-0.50;99.90
15241;DHT22;7723;52.170;9.978;2023-04-03T00:45:26;-0.60;99.90
15241;DHT22;7723;52.170;9.978;2023-04-03T00:47:53;-0.60;99.90
15241;DHT22;7723;52.170;9.978;2023-04-03T00:50:21;-0.50;99.90
15241;DHT22;7723;52.170;9.978;2023-04-03T00:52:48;-0.60;99.90
15241;DHT22;7723;52.170;9.978;2023-04-03T00:55:16;-0.70;99.90
15241;DHT22;7723;52.170;9.978;2023-04-03T00:57:44;-0.70;99.90
15241;DHT22;7723;52.170;9.978;2023-04-03T01:00:16;-0.80;99.90
15241;DHT22;7723;52.170;9.978;2023-04-03T01:02:45;-0.80;99.90
15241;DHT22;7723;52.170;9.978;2023-04-03T01:05:16;-0.80;99.90
15241;DHT22;7723;52.170;9.978;2023-04-03T01:07:44;-0.90;99.90
15241;DHT22;7723;52.170;9.978;2023-04-03T01:10:15;-0.90;99.90
15241;DHT22;7723;52.170;9.978;2023-04-03T01:12:44;-0.90;99.90
15241;DHT22;7723;52.170;9.978;2023-04-03T01:15:13;-1.00;99.90
15241;DHT22;7723;52.170;9.978;2023-04-03T01:17:43;-1.10;99.90
15241;DHT22;7723;52.170;9.978;2023-04-03T01:20:35;-1.10;99.90
15241;DHT22;7723;52.170;9.978;2023-04-03T01:23:18;-1.20;99.90
15241;DHT22;7723;52.170;9.978;2023-04-03T01:25:49;-1.20;99.90
15241;DHT22;7723;52.170;9.978;2023-04-03T01:28:18;-1.20;99.90
15241;DHT22;7723;52.170;9.978;2023-04-03T01:30:48;-1.30;99.90
15241;DHT22;7723;52.170;9.978;2023-04-03T01:33:19;-1.30;99.90
15241;DHT22;7723;52.170;9.978;2023-04-03T01:35:46;-0.60;99.90
15241;DHT22;7723;52.170;9.978;2023-04-03T01:38:13;-1.30;99.90
15241;DHT22;7723;52.170;9.978;2023-04-03T01:40:41;-1.40;99.90
15241;DHT22;7723;52.170;9.978;2023-04-03T01:43:08;-1.40;99.90
15241;DHT22;7723;52.170;9.978;2023-04-03T01:45:36;-1.50;99.90
15241;DHT22;7723;52.170;9.978;2023-04-03T01:48:03;-1.60;99.90
15241;DHT22;7723;52.170;9.978;2023-04-03T01:50:32;-1.50;99.90
15241;DHT22;7723;52.170;9.978;2023-04-03T01:52:59;-1.60;99.90
15241;DHT22;7723;52.170;9.978;2023-04-03T01:55:26;-1.60;99.90
15241;DHT22;7723;52.170;9.978;2023-04-03T01:57:53;-1.60;99.90
15241;DHT22;7723;52.170;9.978;2023-04-03T02:00:20;-1.50;99.90
15241;DHT22;7723;52.170;9.978;2023-04-03T02:02:47;-1.50;99.90
15241;DHT22;7723;52.170;9.978;2023-04-03T02:05:15;-1.50;99.90
15241;DHT22;7723;52.170;9.978;2023-04-03T02:07:43;-1.60;99.90
15241;DHT22;7723;52.170;9.978;2023-04-03T02:10:11;-1.60;99.90
15241;DHT22;7723;52.170;9.978;2023-04-03T02:12:39;-1.50;99.90
15241;DHT22;7723;52.170;9.978;2023-04-03T02:15:07;-1.50;99.90
15241;DHT22;7723;52.170;9.978;2023-04-03T02:17:35;-1.50;99.90
15241;DHT22;7723;52.170;9.978;2023-04-03T02:20:03;-1.50;99.90
15241;DHT22;7723;52.170;9.978;2023-04-03T02:22:30;-1.50;99.90
15241;DHT22;7723;52.170;9.978;2023-04-03T02:24:59;-1.50;99.90
15241;DHT22;7723;52.170;9.978;2023-04-03T02:27:26;-1.60;99.90
15241;DHT22;7723;52.170;9.978;2023-04-03T02:29:53;-1.60;99.90
15241;DHT22;7723;52.170;9.978;2023-04-03T02:32:20;-1.60;99.90
15241;DHT22;7723;52.170;9.978;2023-04-03T02:34:47;-1.60;99.90
15241;DHT22;7723;52.170;9.978;2023-04-03T02:37:15;-1.70;99.90
15241;DHT22;7723;52.170;9.978;2023-04-03T02:39:42;-1.70;99.90
15241;DHT22;7723;52.170;9.978;2023-04-03T02:42:10;-1.80;99.90
15241;DHT22;7723;52.170;9.978;2023-04-03T02:44:37;-1.80;99.90
15241;DHT22;7723;52.170;9.978;2023-04-03T02:47:05;-1.80;99.90
15241;DHT22;7723;52.170;9.978;2023-04-03T02:49:32;-1.70;99.90
15241;DHT22;7723;52.170;9.978;2023-04-03T02:51:59;-1.80;99.90
15241;DHT22;7723;52.170;9.978;2023-04-03T02:54:26;-1.80;99.90
15241;DHT22;7723;52.170;9.978;2023-04-03T02:56:56;-1.80;99.90
15241;DHT22;7723;52.170;9.978;2023-04-03T02:59:24;-1.80;99.90
15241;DHT22;7723;52.170;9.978;2023-04-03T03:01:52;-1.90;99.90
15241;DHT22;7723;52.170;9.978;2023-04-03T03:04:19;-1.90;99.90
15241;DHT22;7723;52.170;9.978;2023-04-03T03:06:46;-1.90;99.90
15241;DHT22;7723;52.170;9.978;2023-04-03T03:09:13;-1.80;99.90
15241;DHT22;7723;52.170;9.978;2023-04-03T03:11:40;-1.70;99.90
15241;DHT22;7723;52.170;9.978;2023-04-03T03:14:08;-1.90;99.90
15241;DHT22;7723;52.170;9.978;2023-04-03T03:16:36;-1.90;99.90
15241;DHT22;7723;52.170;9.978;2023-04-03T03:19:03;-2.00;99.90
15241;DHT22;7723;52.170;9.978;2023-04-03T03:21:30;-2.10;99.90
15241;DHT22;7723;52.170;9.978;2023-04-03T03:23:58;-2.10;99.90
15241;DHT22;7723;52.170;9.978;2023-04-03T03:26:25;-1.90;99.90
15241;DHT22;7723;52.170;9.978;2023-04-03T03:28:52;-2.10;99.90
15241;DHT22;7723;52.170;9.978;2023-04-03T03:31:19;-2.20;99.90
15241;DHT22;7723;52.170;9.978;2023-04-03T03:33:47;-2.10;99.90
15241;DHT22;7723;52.170;9.978;2023-04-03T03:36:14;-2.10;99.90
15241;DHT22;7723;52.170;9.978;2023-04-03T03:38:41;-2.20;99.90
15241;DHT22;7723;52.170;9.978;2023-04-03T03:41:08;-2.30;99.90
15241;DHT22;7723;52.170;9.978;2023-04-03T03:43:35;-2.30;99.90
15241;DHT22;7723;52.170;9.978;2023-04-03T03:46:02;-2.20;99.90
15241;DHT22;7723;52.170;9.978;2023-04-03T03:48:29;-2.30;99.90
15241;DHT22;7723;52.170;9.978;2023-04-03T03:50:58;-2.40;99.90
15241;DHT22;7723;52.170;9.978;2023-04-03T03:53:25;-2.10;99.90
15241;DHT22;7723;52.170;9.978;2023-04-03T03:55:52;-2.30;99.90
15241;DHT22;7723;52.170;9.978;2023-04-03T03:58:20;-2.30;99.90
15241;DHT22;7723;52.170;9.978;2023-04-03T04:00:47;-2.20;99.90
15241;DHT22;7723;52.170;9.978;2023-04-03T04:03:14;-2.30;99.90
15241;DHT22;7723;52.170;9.978;2023-04-03T04:05:41;-2.30;99.90
15241;DHT22;7723;52.170;9.978;2023-04-03T04:08:09;-2.30;99.90
15241;DHT22;7723;52.170;9.978;2023-04-03T04:10:37;-2.30;99.90
15241;DHT22;7723;52.170;9.978;2023-04-03T04:13:05;-2.20;99.90
15241;DHT22;7723;52.170;9.978;2023-04-03T04:15:32;-2.30;99.90
15241;DHT22;7723;52.170;9.978;2023-04-03T04:17:59;-2.20;99.90
15241;DHT22;7723;52.170;9.978;2023-04-03T04:20:26;-2.20;99.90
15241;DHT22;7723;52.170;9.978;2023-04-03T04:22:53;-2.10;99.90
15241;DHT22;7723;52.170;9.978;2023-04-03T04:25:22;-2.20;99.90
15241;DHT22;7723;52.170;9.978;2023-04-03T04:27:49;-2.20;99.90
15241;DHT22;7723;52.170;9.978;2023-04-03T04:30:16;-2.30;99.90
15241;DHT22;7723;52.170;9.978;2023-04-03T04:32:43;-2.20;99.90
15241;DHT22;7723;52.170;9.978;2023-04-03T04:35:10;-2.30;99.90
15241;DHT22;7723;52.170;9.978;2023-04-03T04:37:37;-2.20;99.90
15241;DHT22;7723;52.170;9.978;2023-04-03T04:40:05;-2.40;99.90
15241;DHT22;7723;52.170;9.978;2023-04-03T04:42:34;-2.40;99.90
15241;DHT22;7723;52.170;9.978;2023-04-03T04:45:01;-2.50;99.90
15241;DHT22;7723;52.170;9.978;2023-04-03T04:47:29;-2.60;99.90
15241;DHT22;7723;52.170;9.978;2023-04-03T04:49:56;-2.50;99.90
15241;DHT22;7723;52.170;9.978;2023-04-03T04:52:23;-2.50;99.90
15241;DHT22;7723;52.170;9.978;2023-04-03T04:54:50;-2.40;99.90
15241;DHT22;7723;52.170;9.978;2023-04-03T04:57:17;-2.40;99.90
15241;DHT22;7723;52.170;9.978;2023-04-03T04:59:46;-2.40;99.90
15241;DHT22;7723;52.170;9.978;2023-04-03T05:02:13;-2.50;99.90
15241;DHT22;7723;52.170;9.978;2023-04-03T05:04:40;-2.60;99.90
15241;DHT22;7723;52.170;9.978;2023-04-03T05:07:07;-2.60;99.90
15241;DHT22;7723;52.170;9.978;2023-04-03T05:09:36;-2.50;99.90
15241;DHT22;7723;52.170;9.978;2023-04-03T05:12:03;-2.50;99.90
15241;DHT22;7723;52.170;9.978;2023-04-03T05:14:31;-2.50;99.90
15241;DHT22;7723;52.170;9.978;2023-04-03T05:16:59;-2.30;99.90
15241;DHT22;7723;52.170;9.978;2023-04-03T05:19:26;-2.50;99.90
15241;DHT22;7723;52.170;9.978;2023-04-03T05:21:53;-2.50;99.90
15241;DHT22;7723;52.170;9.978;2023-04-03T05:24:20;-2.00;99.90
15241;DHT22;7723;52.170;9.978;2023-04-03T05:26:47;-2.40;99.90
15241;DHT22;7723;52.170;9.978;2023-04-03T05:29:15;-2.30;99.90
15241;DHT22;7723;52.170;9.978;2023-04-03T05:31:42;-2.20;99.90
15241;DHT22;7723;52.170;9.978;2023-04-03T05:34:10;-1.90;99.90
15241;DHT22;7723;52.170;9.978;2023-04-03T05:36:37;-2.20;99.90
15241;DHT22;7723;52.170;9.978;2023-04-03T05:39:04;-2.00;99.90
15241;DHT22;7723;52.170;9.978;2023-04-03T05:41:31;-2.00;99.90
15241;DHT22;7723;52.170;9.978;2023-04-03T05:43:58;-1.90;99.90
15241;DHT22;7723;52.170;9.978;2023-04-03T05:46:26;-1.60;99.90
15241;DHT22;7723;52.170;9.978;2023-04-03T05:48:53;-1.80;99.90
15241;DHT22;7723;52.170;9.978;2023-04-03T05:51:24;-1.70;99.90
15241;DHT22;7723;52.170;9.978;2023-04-03T05:53:56;-1.70;99.90
15241;DHT22;7723;52.170;9.978;2023-04-03T05:56:25;-1.60;99.90
15241;DHT22;7723;52.170;9.978;2023-04-03T05:58:52;-1.50;99.90
15241;DHT22;7723;52.170;9.978;2023-04-03T06:01:20;-1.40;99.90
15241;DHT22;7723;52.170;9.978;2023-04-03T06:03:47;-1.30;99.90
15241;DHT22;7723;52.170;9.978;2023-04-03T06:06:14;-1.30;99.90
15241;DHT22;7723;52.170;9.978;2023-04-03T06:08:43;-1.30;99.90
15241;DHT22;7723;52.170;9.978;2023-04-03T06:11:11;-1.10;99.90
15241;DHT22;7723;52.170;9.978;2023-04-03T06:13:38;-1.00;99.90
15241;DHT22;7723;52.170;9.978;2023-04-03T06:16:06;-0.80;99.90
15241;DHT22;7723;52.170;9.978;2023-04-03T06:18:35;-0.50;99.90
15241;DHT22;7723;52.170;9.978;2023-04-03T06:21:02;0.30;99.90
15241;DHT22;7723;52.170;9.978;2023-04-03T06:23:30;1.50;99.90
15241;DHT22;7723;52.170;9.978;2023-04-03T06:25:59;1.90;99.90
15241;DHT22;7723;52.170;9.978;2023-04-03T06:28:27;2.70;99.90
15241;DHT22;7723;52.170;9.978;2023-04-03T06:30:54;3.80;99.90
15241;DHT22;7723;52.170;9.978;2023-04-03T06:33:21;4.60;99.90
15241;DHT22;7723;52.170;9.978;2023-04-03T06:35:48;4.90;99.90
15241;DHT22;7723;52.170;9.978;2023-04-03T06:38:15;6.10;99.90
15241;DHT22;7723;52.170;9.978;2023-04-03T06:40:44;6.00;99.90
15241;DHT22;7723;52.170;9.978;2023-04-03T06:43:13;6.20;99.90
15241;DHT22;7723;52.170;9.978;2023-04-03T06:45:40;6.80;99.90
15241;DHT22;7723;52.170;9.978;2023-04-03T06:48:07;7.40;99.90
15241;DHT22;7723;52.170;9.978;2023-04-03T06:50:34;6.70;99.90
15241;DHT22;7723;52.170;9.978;2023-04-03T06:53:01;7.10;99.90
15241;DHT22;7723;52.170;9.978;2023-04-03T06:55:29;6.70;33.40
15241;DHT22;7723;52.170;9.978;2023-04-03T06:57:57;7.10;1.00
15241;DHT22;7723;52.170;9.978;2023-04-03T07:00:25;7.60;1.00
15241;DHT22;7723;52.170;9.978;2023-04-03T07:02:53;7.60;1.00
15241;DHT22;7723;52.170;9.978;2023-04-03T07:05:22;6.80;1.00
15241;DHT22;7723;52.170;9.978;2023-04-03T07:07:49;6.80;1.00
15241;DHT22;7723;52.170;9.978;2023-04-03T07:10:17;7.00;1.00
15241;DHT22;7723;52.170;9.978;2023-04-03T07:12:44;7.70;1.00
15241;DHT22;7723;52.170;9.978;2023-04-03T07:15:11;8.60;1.00
15241;DHT22;7723;52.170;9.978;2023-04-03T07:17:41;9.00;1.00
15241;DHT22;7723;52.170;9.978;2023-04-03T07:20:08;9.10;1.00
15241;DHT22;7723;52.170;9.978;2023-04-03T07:22:36;8.70;1.00
15241;DHT22;7723;52.170;9.978;2023-04-03T07:25:04;9.20;1.00
15241;DHT22;7723;52.170;9.978;2023-04-03T07:27:33;8.80;1.00
15241;DHT22;7723;52.170;9.978;2023-04-03T07:30:00;9.40;1.00
15241;DHT22;7723;52.170;9.978;2023-04-03T07:32:28;9.00;1.00
15241;DHT22;7723;52.170;9.978;2023-04-03T07:34:57;9.30;1.00
15241;DHT22;7723;52.170;9.978;2023-04-03T07:37:24;9.70;1.00
15241;DHT22;7723;52.170;9.978;2023-04-03T07:39:52;10.30;1.00
15241;DHT22;7723;52.170;9.978;2023-04-03T07:42:20;9.50;1.00
15241;DHT22;7723;52.170;9.978;2023-04-03T07:44:47;9.30;1.00
15241;DHT22;7723;52.170;9.978;2023-04-03T07:47:14;8.90;1.00
15241;DHT22;7723;52.170;9.978;2023-04-03T07:49:42;9.10;1.00
15241;DHT22;7723;52.170;9.978;2023-04-03T07:52:11;9.20;1.00
15241;DHT22;7723;52.170;9.978;2023-04-03T07:54:39;9.80;1.00
15241;DHT22;7723;52.170;9.978;2023-04-03T07:57:06;10.20;1.00
15241;DHT22;7723;52.170;9.978;2023-04-03T07:59:33;9.90;1.00
15241;DHT22;7723;52.170;9.978;2023-04-03T08:02:01;10.40;1.00
15241;DHT22;7723;52.170;9.978;2023-04-03T08:04:30;10.20;1.00
15241;DHT22;7723;52.170;9.978;2023-04-03T08:06:57;10.10;1.00
15241;DHT22;7723;52.170;9.978;2023-04-03T08:09:26;9.90;1.00
15241;DHT22;7723;52.170;9.978;2023-04-03T08:11:53;9.40;1.00
15241;DHT22;7723;52.170;9.978;2023-04-03T08:14:20;8.10;1.00
15241;DHT22;7723;52.170;9.978;2023-04-03T08:16:47;8.80;1.00
15241;DHT22;7723;52.170;9.978;2023-04-03T08:19:16;9.40;1.00
15241;DHT22;7723;52.170;9.978;2023-04-03T08:21:43;9.80;1.00
15241;DHT22;7723;52.170;9.978;2023-04-03T08:24:11;10.20;1.00
15241;DHT22;7723;52.170;9.978;2023-04-03T08:26:39;10.40;1.00
15241;DHT22;7723;52.170;9.978;2023-04-03T08:29:06;10.90;1.00
15241;DHT22;7723;52.170;9.978;2023-04-03T08:31:33;11.00;1.00
15241;DHT22;7723;52.170;9.978;2023-04-03T08:34:00;9.10;1.00
15241;DHT22;7723;52.170;9.978;2023-04-03T08:36:29;9.70;1.00
15241;DHT22;7723;52.170;9.978;2023-04-03T08:38:56;10.80;1.00
15241;DHT22;7723;52.170;9.978;2023-04-03T08:41:29;10.80;1.00
15241;DHT22;7723;52.170;9.978;2023-04-03T08:44:07;10.90;1.00
15241;DHT22;7723;52.170;9.978;2023-04-03T08:46:47;10.50;1.00
15241;DHT22;7723;52.170;9.978;2023-04-03T08:49:23;10.50;1.00
15241;DHT22;7723;52.170;9.978;2023-04-03T08:51:53;10.50;1.00
15241;DHT22;7723;52.170;9.978;2023-04-03T08:54:25;10.80;1.00
15241;DHT22;7723;52.170;9.978;2023-04-03T08:56:55;11.10;1.00
15241;DHT22;7723;52.170;9.978;2023-04-03T08:59:28;10.80;1.00
15241;DHT22;7723;52.170;9.978;2023-04-03T09:01:58;9.30;1.00
15241;DHT22;7723;52.170;9.978;2023-04-03T09:04:32;8.50;1.00
15241;DHT22;7723;52.170;9.978;2023-04-03T09:07:07;8.60;1.00
15241;DHT22;7723;52.170;9.978;2023-04-03T09:09:38;8.50;1.00
15241;DHT22;7723;52.170;9.978;2023-04-03T09:12:14;8.70;1.00
15241;DHT22;7723;52.170;9.978;2023-04-03T09:14:49;7.60;1.00
15241;DHT22;7723;52.170;9.978;2023-04-03T09:17:29;7.50;1.00
15241;DHT22;7723;52.170;9.978;2023-04-03T09:20:05;7.10;1.00
15241;DHT22;7723;52.170;9.978;2023-04-03T09:22:38;6.70;1.00
15241;DHT22;7723;52.170;9.978;2023-04-03T09:25:10;6.80;1.00
15241;DHT22;7723;52.170;9.978;2023-04-03T09:27:39;6.30;1.00
15241;DHT22;7723;52.170;9.978;2023-04-03T09:30:13;6.10;1.00
15241;DHT22;7723;52.170;9.978;2023-04-03T09:32:43;5.50;1.00
15241;DHT22;7723;52.170;9.978;2023-04-03T09:35:20;5.50;1.00
15241;DHT22;7723;52.170;9.978;2023-04-03T09:37:50;6.30;1.00
15241;DHT22;7723;52.170;9.978;2023-04-03T09:40:31;7.50;1.00
15241;DHT22;7723;52.170;9.978;2023-04-03T09:43:01;8.80;1.00
15241;DHT22;7723;52.170;9.978;2023-04-03T09:45:31;9.20;1.00
15241;DHT22;7723;52.170;9.978;2023-04-03T09:48:07;9.60;1.00
15241;DHT22;7723;52.170;9.978;2023-04-03T09:50:35;9.10;1.00
15241;DHT22;7723;52.170;9.978;2023-04-03T09:53:07;8.50;1.00
15241;DHT22;7723;52.170;9.978;2023-04-03T09:55:50;9.50;1.00
15241;DHT22;7723;52.170;9.978;2023-04-03T09:58:26;9.60;1.00
15241;DHT22;7723;52.170;9.978;2023-04-03T10:00:59;9.10;1.00
15241;DHT22;7723;52.170;9.978;2023-04-03T10:03:29;9.00;1.00
15241;DHT22;7723;52.170;9.978;2023-04-03T10:05:57;8.40;1.00
15241;DHT22;7723;52.170;9.978;2023-04-03T10:08:28;8.00;1.00
15241;DHT22;7723;52.170;9.978;2023-04-03T10:11:08;7.40;1.00
15241;DHT22;7723;52.170;9.978;2023-04-03T10:13:35;6.80;1.00
15241;DHT22;7723;52.170;9.978;2023-04-03T10:16:07;6.40;1.00
15241;DHT22;7723;52.170;9.978;2023-04-03T10:18:40;6.40;1.00
15241;DHT22;7723;52.170;9.978;2023-04-03T10:21:14;6.20;1.00
15241;DHT22;7723;52.170;9.978;2023-04-03T10:23:45;5.80;1.00
15241;DHT22;7723;52.170;9.978;2023-04-03T10:26:17;6.00;1.00
15241;DHT22;7723;52.170;9.978;2023-04-03T10:28:54;6.30;1.00
15241;DHT22;7723;52.170;9.978;2023-04-03T10:31:29;6.20;1.00
15241;DHT22;7723;52.170;9.978;2023-04-03T10:34:02;6.20;1.00
15241;DHT22;7723;52.170;9.978;2023-04-03T10:36:38;6.10;1.00
15241;DHT22;7723;52.170;9.978;2023-04-03T10:39:17;6.40;1.00
15241;DHT22;7723;52.170;9.978;2023-04-03T10:42:00;6.70;1.00
15241;DHT22;7723;52.170;9.978;2023-04-03T10:44:36;7.10;1.00
15241;DHT22;7723;52.170;9.978;2023-04-03T10:47:11;7.40;1.00
15241;DHT22;7723;52.170;9.978;2023-04-03T10:49:48;7.60;1.00
15241;DHT22;7723;52.170;9.978;2023-04-03T10:52:20;7.60;1.00
15241;DHT22;7723;52.170;9.978;2023-04-03T10:54:57;8.00;1.00
15241;DHT22;7723;52.170;9.978;2023-04-03T10:57:29;7.50;1.00
15241;DHT22;7723;52.170;9.978;2023-04-03T10:59:59;6.90;1.00
15241;DHT22;7723;52.170;9.978;2023-04-03T11:02:31;6.60;1.00
15241;DHT22;7723;52.170;9.978;2023-04-03T11:05:02;6.60;1.00
15241;DHT22;7723;52.170;9.978;2023-04-03T11:07:34;6.80;1.00
15241;DHT22;7723;52.170;9.978;2023-04-03T11:10:11;6.90;1.00
15241;DHT22;7723;52.170;9.978;2023-04-03T11:12:42;6.90;1.00
15241;DHT22;7723;52.170;9.978;2023-04-03T11:15:13;6.60;1.00
15241;DHT22;7723;52.170;9.978;2023-04-03T11:17:46;6.40;1.00
15241;DHT22;7723;52.170;9.978;2023-04-03T11:20:18;6.30;1.00
15241;DHT22;7723;52.170;9.978;2023-04-03T11:22:50;6.40;1.00
15241;DHT22;7723;52.170;9.978;2023-04-03T11:25:21;6.30;1.00
15241;DHT22;7723;52.170;9.978;2023-04-03T11:27:57;6.50;1.00
15241;DHT22;7723;52.170;9.978;2023-04-03T11:30:28;6.50;1.00
15241;DHT22;7723;52.170;9.978;2023-04-03T11:33:09;6.50;1.00
15241;DHT22;7723;52.170;9.978;2023-04-03T11:35:43;6.50;1.00
15241;DHT22;7723;52.170;9.978;2023-04-03T11:38:19;6.40;1.00
15241;DHT22;7723;52.170;9.978;2023-04-03T11:40:49;6.40;1.00
15241;DHT22;7723;52.170;9.978;2023-04-03T11:43:24;6.40;1.00
15241;DHT22;7723;52.170;9.978;2023-04-03T11:45:57;6.50;1.00
15241;DHT22;7723;52.170;9.978;2023-04-03T11:48:47;6.60;1.00
15241;DHT22;7723;52.170;9.978;2023-04-03T11:51:40;6.70;1.00
15241;DHT22;7723;52.170;9.978;2023-04-03T11:54:44;6.60;1.00
15241;DHT22;7723;52.170;9.978;2023-04-03T11:57:47;6.50;1.00
15241;DHT22;7723;52.170;9.978;2023-04-03T12:00:52;6.80;1.00
15241;DHT22;7723;52.170;9.978;2023-04-03T12:04:07;6.90;1.00
15241;DHT22;7723;52.170;9.978;2023-04-03T12:06:52;7.00;1.00
15241;DHT22;7723;52.170;9.978;2023-04-03T12:09:25;7.30;1.00
15241;DHT22;7723;52.170;9.978;2023-04-03T12:11:53;7.20;1.00
15241;DHT22;7723;52.170;9.978;2023-04-03T12:14:23;7.00;1.00
15241;DHT22;7723;52.170;9.978;2023-04-03T12:16:53;7.10;1.00
15241;DHT22;7723;52.170;9.978;2023-04-03T12:19:36;7.10;1.00
15241;DHT22;7723;52.170;9.978;2023-04-03T12:22:13;6.80;1.00
15241;DHT22;7723;52.170;9.978;2023-04-03T12:24:41;6.90;1.00
15241;DHT22;7723;52.170;9.978;2023-04-03T12:27:19;6.90;1.00
15241;DHT22;7723;52.170;9.978;2023-04-03T12:29:53;6.80;1.00
15241;DHT22;7723;52.170;9.978;2023-04-03T12:32:34;6.70;1.00
15241;DHT22;7723;52.170;9.978;2023-04-03T12:35:14;6.80;1.00
15241;DHT22;7723;52.170;9.978;2023-04-03T12:38:10;6.90;1.00
15241;DHT22;7723;52.170;9.978;2023-04-03T12:40:45;6.90;1.00
15241;DHT22;7723;52.170;9.978;2023-04-03T12:43:28;7.10;1.00
15241;DHT22;7723;52.170;9.978;2023-04-03T12:46:03;7.30;1.00
15241;DHT22;7723;52.170;9.978;2023-04-03T12:48:32;7.40;1.00
15241;DHT22;7723;52.170;9.978;2023-04-03T12:51:05;7.40;1.00
15241;DHT22;7723;52.170;9.978;2023-04-03T12:53:34;7.60;1.00
15241;DHT22;7723;52.170;9.978;2023-04-03T12:56:21;7.70;1.00
15241;DHT22;7723;52.170;9.978;2023-04-03T12:58:48;8.00;1.00
15241;DHT22;7723;52.170;9.978;2023-04-03T13:01:18;7.80;1.00
15241;DHT22;7723;52.170;9.978;2023-04-03T13:03:49;7.90;1.00
15241;DHT22;7723;52.170;9.978;2023-04-03T13:06:21;7.50;1.00
15241;DHT22;7723;52.170;9.978;2023-04-03T13:08:49;7.60;1.00
15241;DHT22;7723;52.170;9.978;2023-04-03T13:11:17;7.30;1.00
15241;DHT22;7723;52.170;9.978;2023-04-03T13:13:57;6.90;1.00
15241;DHT22;7723;52.170;9.978;2023-04-03T13:16:24;6.60;1.00
15241;DHT22;7723;52.170;9.978;2023-04-03T13:18:53;6.50;1.00
15241;DHT22;7723;52.170;9.978;2023-04-03T13:21:24;6.70;1.00
15241;DHT22;7723;52.170;9.978;2023-04-03T13:23:55;6.70;1.00
15241;DHT22;7723;52.170;9.978;2023-04-03T13:26:26;7.00;1.00
15241;DHT22;7723;52.170;9.978;2023-04-03T13:28:55;7.00;1.00
15241;DHT22;7723;52.170;9.978;2023-04-03T13:31:27;6.90;1.00
15241;DHT22;7723;52.170;9.978;2023-04-03T13:33:57;7.00;1.00
15241;DHT22;7723;52.170;9.978;2023-04-03T13:36:30;7.20;1.00
15241;DHT22;7723;52.170;9.978;2023-04-03T13:38:59;7.10;1.00
15241;DHT22;7723;52.170;9.978;2023-04-03T13:41:30;7.40;1.00
15241;DHT22;7723;52.170;9.978;2023-04-03T13:44:29;7.30;1.00
15241;DHT22;7723;52.170;9.978;2023-04-03T13:46:59;7.40;1.00
15241;DHT22;7723;52.170;9.978;2023-04-03T13:49:33;7.40;1.00
15241;DHT22;7723;52.170;9.978;2023-04-03T13:52:17;7.70;1.00
15241;DHT22;7723;52.170;9.978;2023-04-03T13:54:52;7.60;1.00
15241;DHT22;7723;52.170;9.978;2023-04-03T13:57:22;7.70;1.00
15241;DHT22;7723;52.170;9.978;2023-04-03T13:59:49;7.60;1.00
15241;DHT22;7723;52.170;9.978;2023-04-03T14:02:20;7.60;1.00
15241;DHT22;7723;52.170;9.978;2023-04-03T14:04:51;7.30;1.00
15241;DHT22;7723;52.170;9.978;2023-04-03T14:07:23;7.10;1.00
15241;DHT22;7723;52.170;9.978;2023-04-03T14:09:51;6.90;1.00
15241;DHT22;7723;52.170;9.978;2023-04-03T14:12:24;6.80;1.00
15241;DHT22;7723;52.170;9.978;2023-04-03T14:14:52;6.80;1.00
15241;DHT22;7723;52.170;9.978;2023-04-03T14:17:22;6.80;1.00
15241;DHT22;7723;52.170;9.978;2023-04-03T14:19:51;7.30;1.00
15241;DHT22;7723;52.170;9.978;2023-04-03T14:22:21;7.40;1.00
15241;DHT22;7723;52.170;9.978;2023-04-03T14:24:50;7.50;1.00
15241;DHT22;7723;52.170;9.978;2023-04-03T14:27:19;7.50;1.00
15241;DHT22;7723;52.170;9.978;2023-04-03T14:29:48;7.30;1.00
15241;DHT22;7723;52.170;9.978;2023-04-03T14:32:17;7.10;1.00
15241;DHT22;7723;52.170;9.978;2023-04-03T14:34:45;7.10;1.00
15241;DHT22;7723;52.170;9.978;2023-04-03T14:37:14;7.20;1.00
15241;DHT22;7723;52.170;9.978;2023-04-03T14:39:42;7.20;1.00
15241;DHT22;7723;52.170;9.978;2023-04-03T14:42:16;7.10;1.00
15241;DHT22;7723;52.170;9.978;2023-04-03T14:44:43;7.00;1.00
15241;DHT22;7723;52.170;9.978;2023-04-03T14:47:12;7.00;1.00
15241;DHT22;7723;52.170;9.978;2023-04-03T14:49:40;7.00;1.00
15241;DHT22;7723;52.170;9.978;2023-04-03T14:52:18;7.10;1.00
15241;DHT22;7723;52.170;9.978;2023-04-03T14:54:45;7.10;1.00
15241;DHT22;7723;52.170;9.978;2023-04-03T14:57:16;7.10;1.00
15241;DHT22;7723;52.170;9.978;2023-04-03T14:59:44;7.10;1.00
15241;DHT22;7723;52.170;9.978;2023-04-03T15:02:25;7.00;1.00
15241;DHT22;7723;52.170;9.978;2023-04-03T15:04:52;6.90;1.00
15241;DHT22;7723;52.170;9.978;2023-04-03T15:07:20;6.90;1.00
15241;DHT22;7723;52.170;9.978;2023-04-03T15:09:47;6.80;1.00
15241;DHT22;7723;52.170;9.978;2023-04-03T15:12:16;7.10;1.00
15241;DHT22;7723;52.170;9.978;2023-04-03T15:14:43;7.20;1.00
15241;DHT22;7723;52.170;9.978;2023-04-03T15:17:15;7.40;1.00
15241;DHT22;7723;52.170;9.978;2023-04-03T15:19:43;7.30;1.00
15241;DHT22;7723;52.170;9.978;2023-04-03T15:22:13;7.40;1.00
15241;DHT22;7723;52.170;9.978;2023-04-03T15:24:41;7.40;1.00
15241;DHT22;7723;52.170;9.978;2023-04-03T15:27:08;7.30;1.00
15241;DHT22;7723;52.170;9.978;2023-04-03T15:29:41;7.20;1.00
15241;DHT22;7723;52.170;9.978;2023-04-03T15:32:09;7.10;1.00
15241;DHT22;7723;52.170;9.978;2023-04-03T15:34:37;6.90;1.00
15241;DHT22;7723;52.170;9.978;2023-04-03T15:37:04;6.90;1.00
15241;DHT22;7723;52.170;9.978;2023-04-03T15:39:31;6.80;1.00
15241;DHT22;7723;52.170;9.978;2023-04-03T15:41:59;6.60;1.00
15241;DHT22;7723;52.170;9.978;2023-04-03T15:44:31;6.50;1.00
15241;DHT22;7723;52.170;9.978;2023-04-03T15:47:01;6.50;1.00
15241;DHT22;7723;52.170;9.978;2023-04-03T15:49:28;6.50;1.00
15241;DHT22;7723;52.170;9.978;2023-04-03T15:51:55;6.60;1.00
15241;DHT22;7723;52.170;9.978;2023-04-03T15:54:22;6.50;1.00
15241;DHT22;7723;52.170;9.978;2023-04-03T15:56:51;6.60;1.00
15241;DHT22;7723;52.170;9.978;2023-04-03T15:59:18;6.60;1.00
15241;DHT22;7723;52.170;9.978;2023-04-03T16:01:46;6.60;1.00
15241;DHT22;7723;52.170;9.978;2023-04-03T16:04:15;6.50;1.00
15241;DHT22;7723;52.170;9.978;2023-04-03T16:06:42;6.40;1.00
15241;DHT22;7723;52.170;9.978;2023-04-03T16:09:10;6.40;1.00
15241;DHT22;7723;52.170;9.978;2023-04-03T16:11:37;6.30;1.00
15241;DHT22;7723;52.170;9.978;2023-04-03T16:14:05;6.10;1.00
15241;DHT22;7723;52.170;9.978;2023-04-03T16:16:33;6.10;1.00
15241;DHT22;7723;52.170;9.978;2023-04-03T16:19:00;6.10;1.00
15241;DHT22;7723;52.170;9.978;2023-04-03T16:21:29;6.10;1.00
15241;DHT22;7723;52.170;9.978;2023-04-03T16:23:57;6.00;1.00